sensor_id;sensor_type;location;lat;lon;timestamp;temperature;humidity
17007;DHT22;8620;51.168;4.154;2023-04-06T07:01:21;8.30;99.90
17007;DHT22;8620;51.168;4.154;2023-04-06T07:04:22;8.40;99.90
17007;DHT22;8620;51.168;4.154;2023-04-06T07:06:48;8.40;99.90
17007;DHT22;8620;51.168;4.154;2023-04-06T07:09:14;8.50;99.90
17007;DHT22;8620;51.168;4.154;2023-04-06T07:11:42;8.40;99.90
17007;DHT22;8620;51.168;4.154;2023-04-06T07:14:08;8.50;99.90
17007;DHT22;8620;51.168;4.154;2023-04-06T07:16:35;8.60;99.90
17007;DHT22;8620;51.168;4.154;2023-04-06T07:19:00;8.60;99.90
17007;DHT22;8620;51.168;4.154;2023-04-06T07:21:36;8.40;99.90
17007;DHT22;8620;51.168;4.154;2023-04-06T07:24:02;8.40;99.90
17007;DHT22;8620;51.168;4.154;2023-04-06T07:26:28;8.40;99.90
17007;DHT22;8620;51.168;4.154;2023-04-06T07:28:54;8.40;99.90
17007;DHT22;8620;51.168;4.154;2023-04-06T07:31:20;8.50;99.90
17007;DHT22;8620;51.168;4.154;2023-04-06T07:33:45;8.70;99.90
17007;DHT22;8620;51.168;4.154;2023-04-06T07:36:12;8.60;99.90
17007;DHT22;8620;51.168;4.154;2023-04-06T07:38:53;8.60;99.90
17007;DHT22;8620;51.168;4.154;2023-04-06T07:41:43;8.70;99.90
17007;DHT22;8620;51.168;4.154;2023-04-06T07:44:16;8.80;99.90
17007;DHT22;8620;51.168;4.154;2023-04-06T07:46:42;8.80;99.90
17007;DHT22;8620;51.168;4.154;2023-04-06T07:49:37;8.80;99.90
17007;DHT22;8620;51.168;4.154;2023-04-06T07:52:11;9.00;99.90
17007;DHT22;8620;51.168;4.154;2023-04-06T07:54:48;8.80;99.90
17007;DHT22;8620;51.168;4.154;2023-04-06T07:57:14;8.70;99.90
17007;DHT22;8620;51.168;4.154;2023-04-06T07:59:43;8.60;99.90
17007;DHT22;8620;51.168;4.154;2023-04-06T08:02:12;8.60;99.90
17007;DHT22;8620;51.168;4.154;2023-04-06T08:04:58;8.50;99.90
17007;DHT22;8620;51.168;4.154;2023-04-06T08:07:38;8.70;99.90
17007;DHT22;8620;51.168;4.154;2023-04-06T08:10:15;8.70;99.90
17007;DHT22;8620;51.168;4.154;2023-04-06T08:13:11;8.60;99.90
17007;DHT22;8620;51.168;4.154;2023-04-06T08:15:50;8.60;99.90
17007;DHT22;8620;51.168;4.154;2023-04-06T08:18:39;8.70;99.90
17007;DHT22;8620;51.168;4.154;2023-04-06T08:21:11;8.70;99.90
17007;DHT22;8620;51.168;4.154;2023-04-06T08:24:06;8.70;99.90
17007;DHT22;8620;51.168;4.154;2023-04-06T08:26:43;8.70;99.90
17007;DHT22;8620;51.168;4.154;2023-04-06T08:29:12;8.70;99.90
17007;DHT22;8620;51.168;4.154;2023-04-06T08:31:58;8.70;99.90
17007;DHT22;8620;51.168;4.154;2023-04-06T08:34:37;8.70;99.90
17007;DHT22;8620;51.168;4.154;2023-04-06T08:37:11;8.70;99.90
17007;DHT22;8620;51.168;4.154;2023-04-06T08:39:42;8.60;99.90
17007;DHT22;8620;51.168;4.154;2023-04-06T08:42:15;8.50;99.90
17007;DHT22;8620;51.168;4.154;2023-04-06T08:45:08;8.40;99.90
17007;DHT22;8620;51.168;4.154;2023-04-06T08:47:43;8.50;99.90
17007;DHT22;8620;51.168;4.154;2023-04-06T08:50:10;8.60;99.90
17007;DHT22;8620;51.168;4.154;2023-04-06T08:52:49;8.40;99.90
17007;DHT22;8620;51.168;4.154;2023-04-06T08:55:20;8.60;99.90
17007;DHT22;8620;51.168;4.154;2023-04-06T08:58:11;8.60;99.90
17007;DHT22;8620;51.168;4.154;2023-04-06T09:00:46;8.60;99.90
17007;DHT22;8620;51.168;4.154;2023-04-06T09:04:06;8.60;99.90
17007;DHT22;8620;51.168;4.154;2023-04-06T09:06:39;8.60;99.90
17007;DHT22;8620;51.168;4.154;2023-04-06T09:09:10;8.70;99.90
17007;DHT22;8620;51.168;4.154;2023-04-06T09:11:48;8.70;99.90
17007;DHT22;8620;51.168;4.154;2023-04-06T09:14:33;8.70;99.90
17007;DHT22;8620;51.168;4.154;2023-04-06T09:17:02;8.70;99.90
17007;DHT22;8620;51.168;4.154;2023-04-06T09:19:52;8.70;99.90
17007;DHT22;8620;51.168;4.154;2023-04-06T09:22:34;8.60;99.90
17007;DHT22;8620;51.168;4.154;2023-04-06T09:25:08;8.70;99.90
17007;DHT22;8620;51.168;4.154;2023-04-06T09:28:00;8.80;99.90
17007;DHT22;8620;51.168;4.154;2023-04-06T09:30:30;8.70;99.90
17007;DHT22;8620;51.168;4.154;2023-04-06T09:33:04;8.60;99.90
17007;DHT22;8620;51.168;4.154;2023-04-06T09:35:56;8.60;99.90
17007;DHT22;8620;51.168;4.154;2023-04-06T09:41:32;8.50;99.90
17007;DHT22;8620;51.168;4.154;2023-04-06T09:44:11;8.60;99.90
17007;DHT22;8620;51.168;4.154;2023-04-06T09:46:46;8.60;99.90
17007;DHT22;8620;51.168;4.154;2023-04-06T09:49:38;8.60;99.90
17007;DHT22;8620;51.168;4.154;2023-04-06T09:52:32;8.60;99.90
17007;DHT22;8620;51.168;4.154;2023-04-06T09:55:05;8.70;99.90
17007;DHT22;8620;51.168;4.154;2023-04-06T09:57:57;8.90;99.90
17007;DHT22;8620;51.168;4.154;2023-04-06T10:01:10;8.80;99.90
17007;DHT22;8620;51.168;4.154;2023-04-06T10:07:23;8.90;99.90
17007;DHT22;8620;51.168;4.154;2023-04-06T10:10:02;8.80;99.90
17007;DHT22;8620;51.168;4.154;2023-04-06T10:12:31;8.80;99.90
17007;DHT22;8620;51.168;4.154;2023-04-06T10:14:57;8.80;99.90
17007;DHT22;8620;51.168;4.154;2023-04-06T10:17:43;8.80;99.90
17007;DHT22;8620;51.168;4.154;2023-04-06T10:20:21;8.80;99.90
17007;DHT22;8620;51.168;4.154;2023-04-06T10:33:29;8.20;99.90
17007;DHT22;8620;51.168;4.154;2023-04-06T10:36:43;8.40;99.90
17007;DHT22;8620;51.168;4.154;2023-04-06T10:39:12;8.60;99.90
17007;DHT22;8620;51.168;4.154;2023-04-06T10:41:43;8.70;99.90
17007;DHT22;8620;51.168;4.154;2023-04-06T10:44:26;8.80;99.90
17007;DHT22;8620;51.168;4.154;2023-04-06T10:47:21;8.80;99.90
17007;DHT22;8620;51.168;4.154;2023-04-06T10:49:46;8.70;99.90
17007;DHT22;8620;51.168;4.154;2023-04-06T10:52:23;8.60;99.90
17007;DHT22;8620;51.168;4.154;2023-04-06T10:55:21;8.70;99.90
17007;DHT22;8620;51.168;4.154;2023-04-06T10:57:55;8.70;99.90
17007;DHT22;8620;51.168;4.154;2023-04-06T11:00:29;8.80;99.90
17007;DHT22;8620;51.168;4.154;2023-04-06T11:03:15;8.60;99.90
17007;DHT22;8620;51.168;4.154;2023-04-06T11:06:08;8.60;99.90
17007;DHT22;8620;51.168;4.154;2023-04-06T11:08:54;8.70;99.90
17007;DHT22;8620;51.168;4.154;2023-04-06T11:11:31;8.80;99.90
17007;DHT22;8620;51.168;4.154;2023-04-06T11:13:58;8.90;99.90
17007;DHT22;8620;51.168;4.154;2023-04-06T11:16:31;8.90;99.90
17007;DHT22;8620;51.168;4.154;2023-04-06T11:19:00;9.00;99.90
17007;DHT22;8620;51.168;4.154;2023-04-06T11:21:45;9.00;99.90
17007;DHT22;8620;51.168;4.154;2023-04-06T11:26:58;9.00;99.90
17007;DHT22;8620;51.168;4.154;2023-04-06T11:29:29;9.00;99.90
17007;DHT22;8620;51.168;4.154;2023-04-06T11:32:03;9.10;99.90
17007;DHT22;8620;51.168;4.154;2023-04-06T11:34:39;9.00;99.90
17007;DHT22;8620;51.168;4.154;2023-04-06T11:37:26;9.00;99.90
17007;DHT22;8620;51.168;4.154;2023-04-06T11:40:01;9.10;99.90
17007;DHT22;8620;51.168;4.154;2023-04-06T11:42:32;9.30;99.90
17007;DHT22;8620;51.168;4.154;2023-04-06T11:45:09;9.30;99.90
17007;DHT22;8620;51.168;4.154;2023-04-06T11:47:54;9.30;99.90
17007;DHT22;8620;51.168;4.154;2023-04-06T11:50:32;9.30;99.90
17007;DHT22;8620;51.168;4.154;2023-04-06T11:53:04;9.20;99.90
17007;DHT22;8620;51.168;4.154;2023-04-06T11:56:01;9.20;99.90
17007;DHT22;8620;51.168;4.154;2023-04-06T11:58:45;9.20;99.90
17007;DHT22;8620;51.168;4.154;2023-04-06T12:01:31;9.20;99.90
17007;DHT22;8620;51.168;4.154;2023-04-06T12:03:57;9.40;99.90
17007;DHT22;8620;51.168;4.154;2023-04-06T12:06:24;9.50;99.90
17007;DHT22;8620;51.168;4.154;2023-04-06T12:08:51;9.30;99.90
17007;DHT22;8620;51.168;4.154;2023-04-06T12:11:16;9.30;99.90
17007;DHT22;8620;51.168;4.154;2023-04-06T12:13:44;9.30;99.90
17007;DHT22;8620;51.168;4.154;2023-04-06T12:16:10;9.40;99.90
17007;DHT22;8620;51.168;4.154;2023-04-06T12:18:38;9.30;99.90
17007;DHT22;8620;51.168;4.154;2023-04-06T12:21:04;9.40;99.90
17007;DHT22;8620;51.168;4.154;2023-04-06T12:23:31;9.50;99.90
17007;DHT22;8620;51.168;4.154;2023-04-06T12:25:56;9.40;99.90
17007;DHT22;8620;51.168;4.154;2023-04-06T12:28:22;9.70;99.90
17007;DHT22;8620;51.168;4.154;2023-04-06T12:30:52;9.60;99.90
17007;DHT22;8620;51.168;4.154;2023-04-06T12:33:19;9.60;99.90
17007;DHT22;8620;51.168;4.154;2023-04-06T12:35:45;9.60;99.90
17007;DHT22;8620;51.168;4.154;2023-04-06T12:38:11;9.70;99.90
17007;DHT22;8620;51.168;4.154;2023-04-06T12:40:38;9.80;99.90
17007;DHT22;8620;51.168;4.154;2023-04-06T12:43:04;9.80;99.90
17007;DHT22;8620;51.168;4.154;2023-04-06T12:45:31;9.80;99.90
17007;DHT22;8620;51.168;4.154;2023-04-06T12:47:58;9.70;99.90
17007;DHT22;8620;51.168;4.154;2023-04-06T12:50:24;9.60;99.90
17007;DHT22;8620;51.168;4.154;2023-04-06T12:52:50;9.50;99.90
17007;DHT22;8620;51.168;4.154;2023-04-06T12:55:16;9.50;99.90
17007;DHT22;8620;51.168;4.154;2023-04-06T12:57:42;9.40;99.90
17007;DHT22;8620;51.168;4.154;2023-04-06T13:00:08;9.50;99.90
17007;DHT22;8620;51.168;4.154;2023-04-06T13:02:35;9.50;99.90
17007;DHT22;8620;51.168;4.154;2023-04-06T13:05:06;9.50;99.90
17007;DHT22;8620;51.168;4.154;2023-04-06T13:07:34;9.60;99.90
17007;DHT22;8620;51.168;4.154;2023-04-06T13:10:04;9.60;99.90
17007;DHT22;8620;51.168;4.154;2023-04-06T13:12:50;9.50;99.90
17007;DHT22;8620;51.168;4.154;2023-04-06T13:15:19;9.50;99.90
17007;DHT22;8620;51.168;4.154;2023-04-06T13:17:50;9.50;99.90
17007;DHT22;8620;51.168;4.154;2023-04-06T13:20:41;9.50;99.90
17007;DHT22;8620;51.168;4.154;2023-04-06T13:23:18;9.40;99.90
17007;DHT22;8620;51.168;4.154;2023-04-06T13:26:06;9.40;99.90
17007;DHT22;8620;51.168;4.154;2023-04-06T13:28:36;9.50;99.90
17007;DHT22;8620;51.168;4.154;2023-04-06T13:31:13;9.60;99.90
17007;DHT22;8620;51.168;4.154;2023-04-06T13:33:44;9.70;99.90
17007;DHT22;8620;51.168;4.154;2023-04-06T13:36:16;9.60;99.90
17007;DHT22;8620;51.168;4.154;2023-04-06T13:38:45;9.70;99.90
17007;DHT22;8620;51.168;4.154;2023-04-06T13:41:25;9.80;99.90
17007;DHT22;8620;51.168;4.154;2023-04-06T13:43:59;9.70;99.90
17007;DHT22;8620;51.168;4.154;2023-04-06T13:46:34;9.70;99.90
17007;DHT22;8620;51.168;4.154;2023-04-06T13:49:05;9.80;99.90
17007;DHT22;8620;51.168;4.154;2023-04-06T13:51:45;10.00;99.90
17007;DHT22;8620;51.168;4.154;2023-04-06T13:54:19;10.00;99.90
17007;DHT22;8620;51.168;4.154;2023-04-06T13:56:48;10.00;99.90
17007;DHT22;8620;51.168;4.154;2023-04-06T13:59:14;10.00;99.90
17007;DHT22;8620;51.168;4.154;2023-04-06T14:01:40;9.90;99.90
17007;DHT22;8620;51.168;4.154;2023-04-06T14:04:17;10.00;99.90
17007;DHT22;8620;51.168;4.154;2023-04-06T14:06:48;10.10;99.90
17007;DHT22;8620;51.168;4.154;2023-04-06T14:09:17;9.90;99.90
17007;DHT22;8620;51.168;4.154;2023-04-06T14:11:43;9.90;99.90
17007;DHT22;8620;51.168;4.154;2023-04-06T14:14:16;9.90;99.90
17007;DHT22;8620;51.168;4.154;2023-04-06T14:16:43;9.90;99.90
17007;DHT22;8620;51.168;4.154;2023-04-06T14:19:14;9.90;99.90
17007;DHT22;8620;51.168;4.154;2023-04-06T14:21:48;10.00;99.90
17007;DHT22;8620;51.168;4.154;2023-04-06T14:24:18;10.00;99.90
17007;DHT22;8620;51.168;4.154;2023-04-06T14:26:47;10.30;99.90
17007;DHT22;8620;51.168;4.154;2023-04-06T14:29:16;10.20;99.90
17007;DHT22;8620;51.168;4.154;2023-04-06T14:31:48;10.20;99.90
17007;DHT22;8620;51.168;4.154;2023-04-06T14:34:19;10.40;99.90
17007;DHT22;8620;51.168;4.154;2023-04-06T14:36:54;10.50;99.90
17007;DHT22;8620;51.168;4.154;2023-04-06T14:39:25;10.40;99.90
17007;DHT22;8620;51.168;4.154;2023-04-06T14:42:25;10.60;99.90
17007;DHT22;8620;51.168;4.154;2023-04-06T14:45:10;10.50;99.90
17007;DHT22;8620;51.168;4.154;2023-04-06T14:47:44;10.50;99.90
17007;DHT22;8620;51.168;4.154;2023-04-06T14:50:15;10.30;99.90
17007;DHT22;8620;51.168;4.154;2023-04-06T14:52:44;10.50;99.90
17007;DHT22;8620;51.168;4.154;2023-04-06T14:55:17;10.50;99.90
17007;DHT22;8620;51.168;4.154;2023-04-06T14:57:46;10.50;99.90
17007;DHT22;8620;51.168;4.154;2023-04-06T15:00:12;10.50;99.90
17007;DHT22;8620;51.168;4.154;2023-04-06T15:02:43;10.60;99.90
17007;DHT22;8620;51.168;4.154;2023-04-06T15:05:12;10.60;99.90
17007;DHT22;8620;51.168;4.154;2023-04-06T15:07:46;10.40;99.90
17007;DHT22;8620;51.168;4.154;2023-04-06T15:10:17;10.40;99.90
17007;DHT22;8620;51.168;4.154;2023-04-06T15:12:55;10.40;99.90
17007;DHT22;8620;51.168;4.154;2023-04-06T15:15:49;10.50;99.90
17007;DHT22;8620;51.168;4.154;2023-04-06T15:18:22;10.60;99.90
17007;DHT22;8620;51.168;4.154;2023-04-06T15:20:56;10.50;99.90
17007;DHT22;8620;51.168;4.154;2023-04-06T15:23:47;10.50;99.90
17007;DHT22;8620;51.168;4.154;2023-04-06T15:26:26;10.50;99.90
17007;DHT22;8620;51.168;4.154;2023-04-06T15:29:03;10.50;99.90
17007;DHT22;8620;51.168;4.154;2023-04-06T15:31:37;10.60;99.90
17007;DHT22;8620;51.168;4.154;2023-04-06T15:34:16;10.60;99.90
17007;DHT22;8620;51.168;4.154;2023-04-06T15:39:42;10.80;99.90
17007;DHT22;8620;51.168;4.154;2023-04-06T15:42:11;10.80;99.90
17007;DHT22;8620;51.168;4.154;2023-04-06T15:44:50;10.90;99.90
17007;DHT22;8620;51.168;4.154;2023-04-06T15:47:32;11.20;99.90
17007;DHT22;8620;51.168;4.154;2023-04-06T15:50:04;11.50;99.90
17007;DHT22;8620;51.168;4.154;2023-04-06T15:52:36;11.10;99.90
17007;DHT22;8620;51.168;4.154;2023-04-06T15:55:22;11.40;99.90
17007;DHT22;8620;51.168;4.154;2023-04-06T15:58:07;11.40;99.90
17007;DHT22;8620;51.168;4.154;2023-04-06T16:00:41;11.30;99.90
17007;DHT22;8620;51.168;4.154;2023-04-06T16:03:22;11.00;99.90
17007;DHT22;8620;51.168;4.154;2023-04-06T16:05:49;11.00;99.90
17007;DHT22;8620;51.168;4.154;2023-04-06T16:08:38;11.00;99.90
17007;DHT22;8620;51.168;4.154;2023-04-06T16:11:18;11.60;99.90
17007;DHT22;8620;51.168;4.154;2023-04-06T16:14:08;12.00;99.90
17007;DHT22;8620;51.168;4.154;2023-04-06T16:16:39;12.30;99.90
17007;DHT22;8620;51.168;4.154;2023-04-06T16:19:08;12.40;99.90
17007;DHT22;8620;51.168;4.154;2023-04-06T16:21:39;12.40;99.90
17007;DHT22;8620;51.168;4.154;2023-04-06T16:24:08;12.20;99.90
17007;DHT22;8620;51.168;4.154;2023-04-06T16:26:45;12.00;99.90
17007;DHT22;8620;51.168;4.154;2023-04-06T16:29:17;11.70;99.90
17007;DHT22;8620;51.168;4.154;2023-04-06T16:31:45;11.80;99.90
17007;DHT22;8620;51.168;4.154;2023-04-06T16:34:16;11.90;99.90
17007;DHT22;8620;51.168;4.154;2023-04-06T16:36:47;11.90;99.90
17007;DHT22;8620;51.168;4.154;2023-04-06T16:39:13;11.70;99.90
17007;DHT22;8620;51.168;4.154;2023-04-06T16:41:47;11.80;99.90
17007;DHT22;8620;51.168;4.154;2023-04-06T16:44:21;11.80;99.90
17007;DHT22;8620;51.168;4.154;2023-04-06T16:46:57;11.70;99.90
17007;DHT22;8620;51.168;4.154;2023-04-06T16:49:26;11.80;99.90
17007;DHT22;8620;51.168;4.154;2023-04-06T16:51:54;11.80;99.90
17007;DHT22;8620;51.168;4.154;2023-04-06T16:54:23;11.70;99.90
17007;DHT22;8620;51.168;4.154;2023-04-06T16:57:07;11.50;99.90
17007;DHT22;8620;51.168;4.154;2023-04-06T16:59:45;11.60;99.90
17007;DHT22;8620;51.168;4.154;2023-04-06T17:02:11;12.00;99.90
17007;DHT22;8620;51.168;4.154;2023-04-06T17:04:46;12.00;99.90
17007;DHT22;8620;51.168;4.154;2023-04-06T17:07:50;12.20;99.90
17007;DHT22;8620;51.168;4.154;2023-04-06T17:10:17;12.20;99.90
17007;DHT22;8620;51.168;4.154;2023-04-06T17:12:44;12.20;99.90
17007;DHT22;8620;51.168;4.154;2023-04-06T17:15:12;11.80;99.90
17007;DHT22;8620;51.168;4.154;2023-04-06T17:17:44;11.60;99.90
17007;DHT22;8620;51.168;4.154;2023-04-06T17:20:13;11.50;99.90
17007;DHT22;8620;51.168;4.154;2023-04-06T17:22:44;11.50;99.90
17007;DHT22;8620;51.168;4.154;2023-04-06T17:25:15;11.50;99.90
17007;DHT22;8620;51.168;4.154;2023-04-06T17:28:06;11.40;99.90
17007;DHT22;8620;51.168;4.154;2023-04-06T17:30:58;11.30;99.90
17007;DHT22;8620;51.168;4.154;2023-04-06T17:33:25;11.70;99.90
17007;DHT22;8620;51.168;4.154;2023-04-06T17:36:21;12.10;99.90
17007;DHT22;8620;51.168;4.154;2023-04-06T17:38:57;12.10;99.90
17007;DHT22;8620;51.168;4.154;2023-04-06T17:41:26;12.10;99.90
17007;DHT22;8620;51.168;4.154;2023-04-06T17:44:15;12.00;99.90
17007;DHT22;8620;51.168;4.154;2023-04-06T17:46:43;12.10;99.90
17007;DHT22;8620;51.168;4.154;2023-04-06T17:49:14;12.00;99.90
17007;DHT22;8620;51.168;4.154;2023-04-06T17:51:43;12.00;99.90
17007;DHT22;8620;51.168;4.154;2023-04-06T17:54:13;12.00;99.90
17007;DHT22;8620;51.168;4.154;2023-04-06T17:57:04;11.60;99.90
17007;DHT22;8620;51.168;4.154;2023-04-06T17:59:54;11.40;99.90
17007;DHT22;8620;51.168;4.154;2023-04-06T18:02:21;11.40;99.90
17007;DHT22;8620;51.168;4.154;2023-04-06T18:04:57;11.20;99.90
17007;DHT22;8620;51.168;4.154;2023-04-06T18:07:31;11.20;99.90
17007;DHT22;8620;51.168;4.154;2023-04-06T18:10:01;11.10;99.90
17007;DHT22;8620;51.168;4.154;2023-04-06T18:12:27;11.00;99.90
17007;DHT22;8620;51.168;4.154;2023-04-06T18:15:05;11.10;99.90
17007;DHT22;8620;51.168;4.154;2023-04-06T18:17:51;11.30;99.90
17007;DHT22;8620;51.168;4.154;2023-04-06T18:20:26;11.50;99.90
17007;DHT22;8620;51.168;4.154;2023-04-06T18:23:04;11.60;99.90
17007;DHT22;8620;51.168;4.154;2023-04-06T18:25:36;11.70;99.90
17007;DHT22;8620;51.168;4.154;2023-04-06T18:28:08;11.80;99.90
17007;DHT22;8620;51.168;4.154;2023-04-06T18:30:57;12.20;99.90
17007;DHT22;8620;51.168;4.154;2023-04-06T18:33:29;12.40;99.90
17007;DHT22;8620;51.168;4.154;2023-04-06T18:36:01;12.40;99.90
17007;DHT22;8620;51.168;4.154;2023-04-06T18:38:48;12.10;99.90
17007;DHT22;8620;51.168;4.154;2023-04-06T18:41:19;11.90;99.90
17007;DHT22;8620;51.168;4.154;2023-04-06T18:43:46;11.90;99.90
17007;DHT22;8620;51.168;4.154;2023-04-06T18:46:18;12.30;99.90
17007;DHT22;8620;51.168;4.154;2023-04-06T18:48:44;12.30;99.90
17007;DHT22;8620;51.168;4.154;2023-04-06T18:51:10;12.40;99.90
17007;DHT22;8620;51.168;4.154;2023-04-06T18:53:44;12.60;99.90
17007;DHT22;8620;51.168;4.154;2023-04-06T18:56:17;12.70;99.90
17007;DHT22;8620;51.168;4.154;2023-04-06T18:58:44;12.80;99.90
17007;DHT22;8620;51.168;4.154;2023-04-06T19:03:53;12.70;99.90
17007;DHT22;8620;51.168;4.154;2023-04-06T19:06:25;12.50;99.90
17007;DHT22;8620;51.168;4.154;2023-04-06T19:08:59;12.40;99.90
17007;DHT22;8620;51.168;4.154;2023-04-06T19:11:29;12.30;99.90
17007;DHT22;8620;51.168;4.154;2023-04-06T19:13:57;12.20;99.90
17007;DHT22;8620;51.168;4.154;2023-04-06T19:16:30;12.40;99.90
17007;DHT22;8620;51.168;4.154;2023-04-06T19:18:56;12.40;99.90
17007;DHT22;8620;51.168;4.154;2023-04-06T19:21:32;12.00;99.90
17007;DHT22;8620;51.168;4.154;2023-04-06T19:24:03;11.80;99.90
17007;DHT22;8620;51.168;4.154;2023-04-06T19:26:29;12.00;99.90
17007;DHT22;8620;51.168;4.154;2023-04-06T19:29:04;12.00;99.90
17007;DHT22;8620;51.168;4.154;2023-04-06T19:31:35;12.00;99.90
17007;DHT22;8620;51.168;4.154;2023-04-06T19:34:06;12.10;99.90
17007;DHT22;8620;51.168;4.154;2023-04-06T19:36:35;11.80;99.90
17007;DHT22;8620;51.168;4.154;2023-04-06T19:39:04;11.90;99.90
17007;DHT22;8620;51.168;4.154;2023-04-06T19:41:35;11.90;99.90
17007;DHT22;8620;51.168;4.154;2023-04-06T19:44:08;11.80;99.90
17007;DHT22;8620;51.168;4.154;2023-04-06T19:46:39;12.00;99.90
17007;DHT22;8620;51.168;4.154;2023-04-06T19:49:12;12.00;99.90
17007;DHT22;8620;51.168;4.154;2023-04-06T19:51:44;12.20;99.90
17007;DHT22;8620;51.168;4.154;2023-04-06T19:54:18;12.20;99.90
17007;DHT22;8620;51.168;4.154;2023-04-06T19:56:43;12.40;99.90
17007;DHT22;8620;51.168;4.154;2023-04-06T19:59:09;12.30;99.90
17007;DHT22;8620;51.168;4.154;2023-04-06T20:01:35;12.40;99.90
17007;DHT22;8620;51.168;4.154;2023-04-06T20:04:09;12.40;99.90
17007;DHT22;8620;51.168;4.154;2023-04-06T20:06:36;12.30;99.90
17007;DHT22;8620;51.168;4.154;2023-04-06T20:09:08;12.40;99.90
17007;DHT22;8620;51.168;4.154;2023-04-06T20:11:36;12.40;99.90
17007;DHT22;8620;51.168;4.154;2023-04-06T20:14:03;12.40;99.90
17007;DHT22;8620;51.168;4.154;2023-04-06T20:16:35;12.30;99.90
17007;DHT22;8620;51.168;4.154;2023-04-06T20:19:06;12.20;99.90
17007;DHT22;8620;51.168;4.154;2023-04-06T20:21:37;12.20;99.90
17007;DHT22;8620;51.168;4.154;2023-04-06T20:24:08;12.00;99.90
17007;DHT22;8620;51.168;4.154;2023-04-06T20:26:41;12.10;99.90
17007;DHT22;8620;51.168;4.154;2023-04-06T20:29:12;12.20;99.90
17007;DHT22;8620;51.168;4.154;2023-04-06T20:31:38;12.20;99.90
17007;DHT22;8620;51.168;4.154;2023-04-06T20:34:06;12.20;99.90
17007;DHT22;8620;51.168;4.154;2023-04-06T20:36:40;12.40;99.90
17007;DHT22;8620;51.168;4.154;2023-04-06T20:39:17;12.40;99.90
17007;DHT22;8620;51.168;4.154;2023-04-06T20:41:51;12.50;99.90
17007;DHT22;8620;51.168;4.154;2023-04-06T20:44:25;12.40;99.90
17007;DHT22;8620;51.168;4.154;2023-04-06T20:46:51;11.70;99.90
17007;DHT22;8620;51.168;4.154;2023-04-06T20:49:22;11.60;99.90
17007;DHT22;8620;51.168;4.154;2023-04-06T20:51:49;11.70;99.90
17007;DHT22;8620;51.168;4.154;2023-04-06T20:54:18;11.40;99.90
17007;DHT22;8620;51.168;4.154;2023-04-06T20:56:53;11.40;99.90
